Nearby METAR Reports

 

LBGO - Gorna Orechovist, Bulgaria
Distance from station: NE 57km
Updated: 07/04/2020 03:00
Clear
Clear
 Wind from varies
Wind: varies 4 km/h
Temperature: -1°C
Dew Point: -4°C
Humidity: 80%
Barometer: 1034 hPa
Clouds: Clear
Visibility: 10 km
2020/04/07 00:00 LBGO 070000Z AUTO VRB02KT 9999 NCD M01/M04 Q1034